Time;durP1;ratioP1;P1;durP2;ratioP2;P2;SDS_P1;SDS_P2;PMS_P1;PMS_P2;Temp;Humidity;BMP_temperature;BMP_pressure;BME280_temperature;BME280_humidity;BME280_pressure;Samples;Min_cycle;Max_cycle;Signal;HPM_P1;HPM_P2
2021/03/22 00:00:25;;;;;;;28.83;6.10;;;6.10;99.90;;;;;;5136339;27;20265;-67
2021/03/22 00:02:50;;;;;;;28.05;5.40;;;6.00;99.90;;;;;;5135750;27;20042;-67
2021/03/22 00:05:18;;;;;;;23.20;4.73;;;6.00;99.90;;;;;;5135463;27;20027;-68
2021/03/22 00:07:44;;;;;;;27.73;5.28;;;6.00;99.90;;;;;;5134300;27;20052;-67
2021/03/22 00:10:10;;;;;;;29.67;8.40;;;6.10;99.90;;;;;;5134185;27;20493;-67
2021/03/22 00:12:36;;;;;;;24.40;4.97;;;6.10;99.90;;;;;;5135481;27;20080;-68
2021/03/22 00:15:04;;;;;;;27.03;5.30;;;6.10;99.90;;;;;;5133565;27;20027;-68
2021/03/22 00:17:30;;;;;;;24.75;5.63;;;6.10;99.90;;;;;;5135007;27;20050;-66
2021/03/22 00:19:55;;;;;;;29.60;6.05;;;6.00;99.90;;;;;;5134868;27;20058;-66
2021/03/22 00:22:21;;;;;;;33.67;5.43;;;6.10;99.90;;;;;;5135113;27;20388;-67
2021/03/22 00:24:47;;;;;;;36.87;5.47;;;6.10;99.90;;;;;;5134898;27;20051;-66
2021/03/22 00:27:12;;;;;;;26.10;5.90;;;6.00;99.90;;;;;;5133460;27;20023;-67
2021/03/22 00:29:38;;;;;;;27.97;5.13;;;6.10;99.90;;;;;;5134585;27;20027;-67
2021/03/22 00:32:04;;;;;;;30.37;5.60;;;6.10;99.90;;;;;;5134484;27;20019;-67
2021/03/22 00:34:30;;;;;;;21.08;5.50;;;6.10;99.90;;;;;;5133270;27;20484;-67
2021/03/22 00:36:56;;;;;;;20.80;5.17;;;6.10;99.90;;;;;;5134484;27;20028;-67
2021/03/22 00:39:22;;;;;;;24.77;5.03;;;6.00;99.90;;;;;;5134430;27;20049;-67
2021/03/22 00:41:47;;;;;;;27.15;5.75;;;6.00;99.90;;;;;;5134550;27;20027;-67
2021/03/22 00:44:13;;;;;;;25.90;5.50;;;6.00;99.90;;;;;;5134482;27;20106;-68
2021/03/22 00:46:39;;;;;;;31.67;6.77;;;6.00;99.90;;;;;;5132947;27;20023;-67
2021/03/22 00:49:05;;;;;;;28.37;5.33;;;6.00;99.90;;;;;;5134323;27;20495;-67
2021/03/22 00:51:31;;;;;;;29.52;6.07;;;6.00;99.90;;;;;;5134246;27;20027;-66
2021/03/22 00:53:56;;;;;;;26.40;6.33;;;6.00;99.90;;;;;;5134572;27;20022;-67
2021/03/22 00:56:22;;;;;;;26.70;5.83;;;6.10;99.90;;;;;;5134742;27;20030;-66
2021/03/22 00:58:47;;;;;;;22.77;5.37;;;6.00;99.90;;;;;;5134465;27;20032;-66
2021/03/22 01:01:13;;;;;;;26.73;5.63;;;6.00;99.90;;;;;;5134348;27;20026;-66
2021/03/22 01:03:39;;;;;;;19.30;4.87;;;6.00;99.90;;;;;;5134352;27;20015;-66
2021/03/22 01:06:07;;;;;;;27.33;5.53;;;6.00;99.90;;;;;;5134291;27;20098;-66
2021/03/22 01:08:36;;;;;;;27.33;5.75;;;6.00;99.90;;;;;;5134047;27;20035;-66
2021/03/22 01:11:08;;;;;;;29.73;6.05;;;6.00;99.90;;;;;;5134371;27;20031;-65
2021/03/22 01:13:43;;;;;;;27.08;5.32;;;5.90;99.90;;;;;;5134046;27;20031;-66
2021/03/22 01:16:10;;;;;;;29.73;5.53;;;5.90;99.90;;;;;;5134300;27;20051;-66
2021/03/22 01:18:41;;;;;;;25.83;6.30;;;5.90;99.90;;;;;;5134346;27;20031;-66
2021/03/22 01:21:19;;;;;;;24.38;5.72;;;5.80;99.90;;;;;;5134327;28;20390;-66
2021/03/22 01:23:45;;;;;;;31.42;5.88;;;5.80;99.90;;;;;;5135157;28;20035;-66
2021/03/22 01:26:14;;;;;;;26.37;6.07;;;5.80;99.90;;;;;;5133900;27;20026;-66
2021/03/22 01:28:40;;;;;;;33.92;6.38;;;5.80;99.90;;;;;;5138096;27;20418;-66
2021/03/22 01:31:07;;;;;;;28.98;5.93;;;5.80;99.90;;;;;;5138248;27;20023;-67
2021/03/22 01:33:39;;;;;;;;;;;5.80;99.90;;;;;;5138425;27;20086;-67
2021/03/22 01:36:12;;;;;;;23.95;5.05;;;5.80;99.90;;;;;;5136913;27;20363;-67
2021/03/22 01:38:38;;;;;;;32.50;5.80;;;5.80;99.90;;;;;;5138243;27;20031;-67
2021/03/22 01:41:13;;;;;;;24.65;5.75;;;5.90;99.90;;;;;;5137900;27;20115;-67
2021/03/22 01:43:44;;;;;;;28.90;6.05;;;5.80;99.90;;;;;;5138213;27;20433;-67
2021/03/22 01:46:10;;;;;;;30.92;6.28;;;5.80;99.90;;;;;;5136951;27;20428;-66
2021/03/22 01:48:36;;;;;;;26.73;5.53;;;5.80;99.90;;;;;;5138132;27;20046;-67
2021/03/22 01:51:02;;;;;;;27.27;5.57;;;5.80;99.90;;;;;;5138138;27;20132;-66
2021/03/22 01:53:28;;;;;;;;;;;5.80;99.90;;;;;;5138444;27;20019;-66
2021/03/22 01:56:16;;;;;;;23.88;5.35;;;5.80;99.90;;;;;;5137719;27;19933;-67
2021/03/22 01:58:41;;;;;;;26.65;5.82;;;5.80;99.90;;;;;;5137665;27;20023;-67
2021/03/22 02:01:07;;;;;;;25.60;5.73;;;5.80;99.90;;;;;;5137829;27;20063;-67
2021/03/22 02:03:33;;;;;;;24.83;5.57;;;5.70;99.90;;;;;;5138085;27;20034;-67
2021/03/22 02:05:59;;;;;;;26.23;5.45;;;5.70;99.90;;;;;;5137844;27;20024;-67
2021/03/22 02:08:32;;;;;;;27.38;6.28;;;5.70;99.90;;;;;;5137636;27;20031;-66
2021/03/22 02:10:58;;;;;;;26.08;5.45;;;5.70;99.90;;;;;;5137453;27;20023;-66
2021/03/22 02:13:29;;;;;;;18.77;5.10;;;5.70;99.90;;;;;;5137403;27;20094;-67
2021/03/22 02:16:22;;;;;;;24.95;5.07;;;5.60;99.90;;;;;;5137308;27;20447;-66
2021/03/22 02:18:58;;;;;;;20.98;5.53;;;5.60;99.90;;;;;;5127674;27;20436;-67
2021/03/22 02:21:42;;;;;;;27.20;6.20;;;5.60;99.90;;;;;;5137121;27;20023;-67
2021/03/22 02:24:20;;;;;;;30.52;5.40;;;5.60;99.90;;;;;;5137192;27;20023;-67
2021/03/22 02:27:03;;;;;;;24.92;5.32;;;5.60;99.90;;;;;;5137430;27;20026;-67
2021/03/22 02:30:04;;;;;;;26.35;5.35;;;5.60;99.90;;;;;;5137069;27;20063;-66
2021/03/22 02:32:59;;;;;;;26.70;5.05;;;5.60;99.90;;;;;;5136891;27;20508;-67
2021/03/22 02:35:29;;;;;;;22.52;4.63;;;5.50;99.90;;;;;;5081325;27;20036;-67
2021/03/22 02:38:00;;;;;;;24.40;4.88;;;5.50;99.90;;;;;;5135835;27;20019;-67
2021/03/22 02:40:29;;;;;;;24.70;4.72;;;5.50;99.90;;;;;;5137203;27;20047;-67
2021/03/22 02:42:56;;;;;;;32.45;5.18;;;5.50;99.90;;;;;;5136653;27;20057;-67
2021/03/22 02:45:29;;;;;;;27.67;4.97;;;5.50;99.90;;;;;;5136959;27;20515;-67
2021/03/22 02:47:55;;;;;;;23.92;4.90;;;5.50;99.90;;;;;;5138271;27;20054;-66
2021/03/22 02:50:25;;;;;;;31.35;6.53;;;5.60;99.90;;;;;;5137816;27;20051;-66
2021/03/22 02:53:09;;;;;;;28.98;4.43;;;5.60;99.90;;;;;;5138025;27;20031;-67
2021/03/22 02:55:52;;;;;;;27.58;4.80;;;5.60;99.90;;;;;;5138938;27;20030;-67
2021/03/22 02:58:22;;;;;;;18.38;4.15;;;5.50;99.90;;;;;;5138368;27;20076;-66
2021/03/22 03:01:06;;;;;;;16.80;3.90;;;5.60;99.90;;;;;;5138756;27;20034;-67
2021/03/22 03:03:34;;;;;;;19.27;4.40;;;5.60;99.90;;;;;;5136853;27;20472;-67
2021/03/22 03:06:00;;;;;;;27.33;4.40;;;5.60;99.90;;;;;;5136496;27;20055;-67
2021/03/22 03:08:31;;;;;;;25.43;4.33;;;5.60;99.90;;;;;;5136301;27;20063;-67
2021/03/22 03:10:57;;;;;;;24.70;4.97;;;5.60;99.90;;;;;;5136506;27;20023;-67
2021/03/22 03:13:23;;;;;;;24.05;5.63;;;5.60;99.90;;;;;;5135167;27;20543;-66
2021/03/22 03:15:49;;;;;;;25.92;5.40;;;5.60;99.90;;;;;;5136047;27;20034;-68
2021/03/22 03:18:15;;;;;;;22.63;3.88;;;5.60;99.90;;;;;;5136017;27;20380;-67
2021/03/22 03:20:41;;;;;;;24.42;4.00;;;5.50;99.90;;;;;;5134910;27;20023;-67
2021/03/22 03:23:06;;;;;;;18.97;4.47;;;5.50;99.90;;;;;;5135780;27;20160;-68
2021/03/22 03:25:32;;;;;;;18.23;3.63;;;5.50;99.90;;;;;;5136167;27;20024;-67
2021/03/22 03:27:58;;;;;;;18.95;3.97;;;5.50;99.90;;;;;;5135891;27;20015;-67
2021/03/22 03:30:27;;;;;;;26.30;4.30;;;5.50;99.90;;;;;;5135625;27;20388;-67
2021/03/22 03:32:54;;;;;;;24.58;4.10;;;5.50;99.90;;;;;;5135435;27;20276;-67
2021/03/22 03:35:21;;;;;;;;;;;5.50;99.90;;;;;;5136129;27;20071;-67
2021/03/22 03:37:46;;;;;;;30.98;4.13;;;5.50;99.90;;;;;;5135830;27;19941;-67
2021/03/22 03:40:18;;;;;;;29.80;4.73;;;5.50;99.90;;;;;;5135925;27;20019;-67
2021/03/22 03:42:43;;;;;;;22.08;3.80;;;5.50;99.90;;;;;;5134305;27;20392;-67
2021/03/22 03:45:13;;;;;;;22.10;4.47;;;5.50;99.90;;;;;;5135582;27;20023;-67
2021/03/22 03:47:40;;;;;;;25.75;4.38;;;5.50;99.90;;;;;;5135612;27;20023;-67
2021/03/22 03:50:09;;;;;;;24.73;4.63;;;5.40;99.90;;;;;;5135385;27;20042;-67
2021/03/22 03:52:35;;;;;;;20.35;4.00;;;5.40;99.90;;;;;;5135120;27;20093;-67
2021/03/22 03:55:01;;;;;;;29.80;4.23;;;5.40;99.90;;;;;;5135298;27;20015;-66
2021/03/22 03:57:26;;;;;;;28.20;4.57;;;5.40;99.90;;;;;;5134186;27;20061;-67
2021/03/22 03:59:52;;;;;;;23.77;3.63;;;5.40;99.90;;;;;;5135427;27;20383;-67
2021/03/22 04:02:17;;;;;;;30.90;5.20;;;5.40;99.90;;;;;;5135393;27;20034;-67
2021/03/22 04:04:43;;;;;;;19.85;4.43;;;5.40;99.90;;;;;;5135345;27;20024;-67
2021/03/22 04:07:09;;;;;;;17.83;3.90;;;5.40;99.90;;;;;;5133806;27;20027;-67
2021/03/22 04:09:34;;;;;;;24.67;4.90;;;5.40;99.90;;;;;;5133725;27;20053;-67
2021/03/22 04:12:00;;;;;;;19.63;4.07;;;5.40;99.90;;;;;;5134987;27;20135;-67
2021/03/22 04:14:27;;;;;;;17.87;3.33;;;5.40;99.90;;;;;;5133756;27;20015;-66
2021/03/22 04:16:54;;;;;;;20.27;3.25;;;5.40;99.90;;;;;;5134932;27;20102;-67
2021/03/22 04:19:20;;;;;;;20.52;3.72;;;5.40;99.90;;;;;;5135423;27;20047;-67
2021/03/22 04:21:46;;;;;;;20.20;3.97;;;5.40;99.90;;;;;;5135329;27;20504;-67
2021/03/22 04:24:12;;;;;;;;;;;5.40;99.90;;;;;;5135316;27;20023;-67
2021/03/22 04:26:38;;;;;;;18.27;4.18;;;5.40;99.90;;;;;;5133656;27;19904;-67
2021/03/22 04:29:04;;;;;;;18.77;3.40;;;5.40;99.90;;;;;;5134944;27;20034;-67
2021/03/22 04:31:30;;;;;;;21.92;3.55;;;5.40;99.90;;;;;;5134533;27;20261;-67
2021/03/22 04:33:57;;;;;;;18.55;3.47;;;5.40;99.90;;;;;;5135088;27;20472;-67
2021/03/22 04:36:29;;;;;;;23.73;3.83;;;5.40;99.90;;;;;;5135109;27;20023;-67
2021/03/22 04:38:55;;;;;;;21.20;3.70;;;5.40;99.90;;;;;;5134723;27;20031;-67
2021/03/22 04:41:21;;;;;;;18.20;3.22;;;5.40;99.90;;;;;;5134934;27;20034;-67
2021/03/22 04:43:48;;;;;;;27.67;4.32;;;5.40;99.90;;;;;;5134815;27;20027;-67
2021/03/22 04:46:14;;;;;;;;;;;5.40;99.90;;;;;;5135242;27;20027;-67
2021/03/22 04:48:39;;;;;;;18.20;3.35;;;5.40;99.90;;;;;;5134654;27;19911;-65
2021/03/22 04:51:05;;;;;;;22.30;4.33;;;5.40;99.90;;;;;;5133331;27;20019;-68
2021/03/22 04:53:32;;;;;;;15.93;3.88;;;5.40;99.90;;;;;;5134789;27;20023;-66
2021/03/22 04:55:58;;;;;;;21.25;4.03;;;5.40;99.90;;;;;;5134707;27;20492;-66
2021/03/22 04:58:23;;;;;;;21.50;4.23;;;5.40;99.90;;;;;;5133327;27;20055;-66
2021/03/22 05:00:49;;;;;;;19.77;3.63;;;5.40;99.90;;;;;;5134681;27;20029;-66
2021/03/22 05:03:17;;;;;;;16.03;3.30;;;5.50;99.90;;;;;;5134263;27;20260;-66
2021/03/22 05:05:43;;;;;;;23.50;3.65;;;5.50;99.90;;;;;;5134312;27;20023;-66
2021/03/22 05:08:18;;;;;;;20.48;3.40;;;5.50;99.90;;;;;;5134767;27;20026;-66
2021/03/22 05:10:47;;;;;;;24.10;3.63;;;5.50;99.90;;;;;;5134259;27;20034;-67
2021/03/22 05:13:15;;;;;;;22.58;3.78;;;5.40;99.90;;;;;;5133868;27;20024;-67
2021/03/22 05:15:41;;;;;;;16.80;3.38;;;5.40;99.90;;;;;;5134310;27;20084;-67
2021/03/22 05:18:07;;;;;;;22.45;3.38;;;5.50;99.90;;;;;;5134246;27;20023;-67
2021/03/22 05:20:36;;;;;;;22.95;3.67;;;5.50;99.90;;;;;;5134084;27;20027;-67
2021/03/22 05:23:15;;;;;;;22.67;3.53;;;5.50;99.90;;;;;;5134028;27;20029;-66
2021/03/22 05:25:41;;;;;;;19.65;3.33;;;5.50;99.90;;;;;;5134056;28;20031;-68
2021/03/22 05:28:08;;;;;;;16.00;2.90;;;5.50;99.90;;;;;;5134053;28;20111;-67
2021/03/22 05:30:35;;;;;;;19.60;3.42;;;5.50;99.90;;;;;;5134123;28;20023;-66
2021/03/22 05:33:03;;;;;;;19.25;3.20;;;5.40;99.90;;;;;;5134121;28;20395;-68
2021/03/22 05:35:29;;;;;;;16.08;3.05;;;5.50;99.90;;;;;;5134188;27;20062;-68
2021/03/22 05:37:56;;;;;;;22.08;4.07;;;5.40;99.90;;;;;;5134181;28;20023;-68
2021/03/22 05:40:43;;;;;;;;;;;5.40;99.90;;;;;;5133599;28;20023;-67
2021/03/22 05:43:17;;;;;;;21.58;2.92;;;5.50;99.90;;;;;;5133916;28;19911;-69
2021/03/22 05:46:02;;;;;;;19.50;3.42;;;5.50;99.90;;;;;;5134094;28;20027;-68
2021/03/22 05:48:48;;;;;;;14.55;2.67;;;5.50;99.90;;;;;;5133897;28;20023;-68
2021/03/22 05:51:20;;;;;;;14.63;3.13;;;5.50;99.90;;;;;;5134298;28;20032;-68
2021/03/22 05:53:48;;;;;;;14.38;2.97;;;5.50;99.90;;;;;;5133574;28;20027;-68
2021/03/22 05:56:27;;;;;;;24.98;3.30;;;5.50;99.90;;;;;;5133960;28;20072;-68
2021/03/22 05:59:12;;;;;;;24.30;4.40;;;5.40;99.90;;;;;;5134098;28;20068;-68
2021/03/22 06:01:43;;;;;;;14.38;2.65;;;5.50;99.90;;;;;;5132201;28;20037;-68
2021/03/22 06:04:21;;;;;;;10.77;2.90;;;5.50;99.90;;;;;;5133915;28;20023;-68
2021/03/22 06:06:48;;;;;;;25.70;4.75;;;5.50;99.90;;;;;;5132272;28;20016;-68
2021/03/22 06:09:28;;;;;;;18.27;3.38;;;5.50;99.90;;;;;;5137623;28;20047;-68
2021/03/22 06:12:05;;;;;;;16.38;3.08;;;5.60;99.90;;;;;;5137066;28;20079;-68
2021/03/22 06:14:48;;;;;;;18.27;2.83;;;5.60;99.90;;;;;;5134584;27;20073;-68
2021/03/22 06:17:37;;;;;;;13.52;2.33;;;5.60;99.90;;;;;;5137815;27;20047;-67
2021/03/22 06:20:21;;;;;;;18.85;2.75;;;5.60;99.90;;;;;;5137587;27;20019;-68
2021/03/22 06:22:47;;;;;;;21.40;4.43;;;5.60;99.90;;;;;;5137658;27;20382;-67
2021/03/22 06:25:20;;;;;;;11.85;3.05;;;5.60;99.90;;;;;;5137315;27;20031;-69
2021/03/22 06:27:53;;;;;;;20.45;3.03;;;5.60;99.90;;;;;;5137061;27;20122;-69
2021/03/22 06:30:22;;;;;;;19.65;3.45;;;5.70;99.90;;;;;;5135818;27;20122;-67
2021/03/22 06:32:50;;;;;;;17.27;2.72;;;5.70;99.90;;;;;;5135298;27;20433;-69
2021/03/22 06:35:34;;;;;;;17.98;3.67;;;5.70;99.90;;;;;;5135730;27;20023;-69
2021/03/22 06:38:00;;;;;;;21.40;3.30;;;5.70;99.90;;;;;;5137250;27;20019;-69
2021/03/22 06:40:26;;;;;;;19.55;3.33;;;5.80;99.90;;;;;;5137361;27;20023;-68
2021/03/22 06:43:11;;;;;;;11.63;3.10;;;5.80;99.90;;;;;;5136240;27;20031;-68
2021/03/22 06:45:45;;;;;;;15.15;3.35;;;5.80;99.90;;;;;;5138120;27;20038;-68
2021/03/22 06:48:24;;;;;;;19.60;3.78;;;6.00;99.90;;;;;;5137817;27;20034;-69
2021/03/22 06:51:13;;;;;;;19.55;3.28;;;5.90;99.90;;;;;;5137901;27;20019;-69
2021/03/22 06:53:43;;;;;;;18.80;3.70;;;5.90;99.90;;;;;;5136945;27;20019;-68
2021/03/22 06:56:21;;;;;;;18.00;3.53;;;5.90;99.90;;;;;;5135613;27;20023;-69
2021/03/22 06:58:49;;;;;;;15.38;2.97;;;5.90;99.90;;;;;;5137254;27;20548;-69
2021/03/22 07:01:30;;;;;;;16.42;3.10;;;6.00;99.90;;;;;;5135862;27;20027;-69
2021/03/22 07:04:16;;;;;;;19.10;3.47;;;6.00;99.90;;;;;;5137107;27;20105;-69
2021/03/22 07:06:42;;;;;;;14.95;3.45;;;6.00;99.90;;;;;;5135909;27;20159;-69
2021/03/22 07:09:29;;;;;;;25.08;3.55;;;6.00;99.90;;;;;;5136195;27;20042;-69
2021/03/22 07:11:55;;;;;;;14.52;2.75;;;6.10;99.90;;;;;;5136606;27;20061;-69
2021/03/22 07:14:26;;;;;;;19.05;3.10;;;6.00;99.90;;;;;;5136725;27;20023;-69
2021/03/22 07:17:07;;;;;;;18.13;2.88;;;6.00;99.90;;;;;;5136315;27;20456;-69
2021/03/22 07:19:33;;;;;;;16.38;2.65;;;6.00;99.90;;;;;;5136597;27;20023;-69
2021/03/22 07:22:04;;;;;;;10.85;2.42;;;6.10;99.90;;;;;;5134819;27;20106;-69
2021/03/22 07:24:52;;;;;;;16.75;2.92;;;6.10;99.90;;;;;;5136586;27;20102;-68
2021/03/22 07:27:41;;;;;;;14.90;2.55;;;6.10;99.90;;;;;;5138779;27;20025;-68
2021/03/22 07:30:25;;;;;;;25.65;3.42;;;6.20;99.90;;;;;;5136565;27;20030;-69
2021/03/22 07:32:53;;;;;;;40.35;4.65;;;6.20;99.90;;;;;;5135613;27;20031;-68
2021/03/22 07:35:23;;;;;;;18.50;3.00;;;6.50;99.90;;;;;;5136088;27;20024;-68
2021/03/22 07:38:28;;;;;;;17.83;3.83;;;6.40;99.90;;;;;;5134754;27;20499;-68
2021/03/22 07:41:06;;;;;;;20.40;3.78;;;6.40;99.90;;;;;;5136229;27;20057;-68
2021/03/22 07:44:01;;;;;;;17.25;2.97;;;6.40;99.90;;;;;;5136065;27;20031;-68
2021/03/22 07:46:45;;;;;;;13.43;3.40;;;6.40;99.90;;;;;;5134879;27;20046;-68
2021/03/22 07:49:26;;;;;;;27.98;3.38;;;6.50;99.90;;;;;;5136573;27;20031;-68
2021/03/22 07:51:57;;;;;;;14.73;2.90;;;6.50;99.90;;;;;;5134345;27;20027;-68
2021/03/22 07:54:31;;;;;;;16.00;2.80;;;6.50;99.90;;;;;;5134490;27;20024;-68
2021/03/22 07:57:35;;;;;;;15.27;2.65;;;6.50;99.90;;;;;;5136117;27;20023;-68
2021/03/22 08:00:42;;;;;;;16.58;3.88;;;6.60;99.90;;;;;;5074912;28;20108;-69
2021/03/22 08:03:24;;;;;;;17.00;3.35;;;6.60;99.90;;;;;;5132317;27;20053;-68
2021/03/22 08:06:12;;;;;;;19.02;3.45;;;6.60;99.90;;;;;;5140489;27;20019;-68
2021/03/22 08:08:56;;;;;;;18.30;3.40;;;6.60;99.90;;;;;;5139296;27;20472;-68
2021/03/22 08:11:44;;;;;;;10.45;2.70;;;6.70;99.90;;;;;;5138895;27;20019;-70
2021/03/22 08:14:29;;;;;;;18.67;2.60;;;6.70;99.90;;;;;;5136788;27;20103;-67
2021/03/22 08:17:31;;;;;;;11.55;2.83;;;6.80;99.90;;;;;;5134313;27;20027;-68
2021/03/22 08:20:01;;;;;;;24.85;9.20;;;6.80;99.90;;;;;;5136547;27;20022;-69
2021/03/22 08:22:48;;;;;;;11.10;2.35;;;6.90;99.90;;;;;;5137002;27;20022;-69
2021/03/22 08:25:34;;;;;;;14.98;3.55;;;7.00;99.90;;;;;;5136403;27;20060;-70
2021/03/22 08:28:27;;;;;;;12.98;2.88;;;7.10;99.90;;;;;;5138301;27;20023;-70
2021/03/22 08:31:14;;;;;;;10.93;2.60;;;7.20;99.90;;;;;;5134674;27;20027;-68
2021/03/22 08:33:45;;;;;;;17.02;2.70;;;7.10;99.90;;;;;;5133686;27;20072;-68
2021/03/22 08:36:29;;;;;;;15.43;3.13;;;7.20;99.90;;;;;;5134747;27;20475;-70
2021/03/22 08:39:03;;;;;;;16.30;3.33;;;7.10;99.90;;;;;;5135053;27;20020;-68
2021/03/22 08:41:45;;;;;;;17.45;2.60;;;7.10;99.90;;;;;;5134906;27;20023;-67
2021/03/22 08:44:17;;;;;;;13.48;2.85;;;7.20;99.90;;;;;;5134808;27;20019;-68
2021/03/22 08:47:09;;;;;;;12.27;3.00;;;7.20;99.90;;;;;;5134552;27;20023;-68
2021/03/22 08:50:03;;;;;;;20.00;3.08;;;7.20;99.90;;;;;;5131542;27;20035;-69
2021/03/22 08:53:00;;;;;;;19.23;6.18;;;7.20;99.90;;;;;;5130294;27;20039;-69
2021/03/22 08:55:40;;;;;;;13.70;3.08;;;7.20;99.90;;;;;;5081601;27;20043;-66
2021/03/22 08:58:27;;;;;;;16.70;3.10;;;7.20;99.90;;;;;;5136576;27;20019;-67
2021/03/22 09:00:55;;;;;;;11.65;3.40;;;7.20;99.90;;;;;;5134341;27;20015;-68
2021/03/22 09:03:33;;;;;;;15.18;3.03;;;7.10;99.90;;;;;;5134653;27;20027;-67
2021/03/22 09:06:11;;;;;;;16.67;3.50;;;7.20;99.90;;;;;;5134043;27;20026;-67
2021/03/22 09:08:59;;;;;;;14.00;2.75;;;7.30;99.90;;;;;;5135285;27;20480;-67
2021/03/22 09:11:28;;;;;;;;;;;7.40;99.90;;;;;;5133218;27;20031;-71
2021/03/22 09:14:17;;;;;;;12.98;2.53;;;7.40;99.90;;;;;;5139603;27;19918;-70
2021/03/22 09:16:48;;;;;;;14.32;2.95;;;7.40;99.90;;;;;;5135675;27;20027;-69
2021/03/22 09:19:13;;;;;;;14.45;3.40;;;7.40;99.90;;;;;;5136297;27;20023;-69
2021/03/22 09:21:45;;;;;;;10.27;2.90;;;7.50;99.90;;;;;;5135024;27;20042;-70
2021/03/22 09:24:36;;;;;;;16.25;3.47;;;7.50;99.90;;;;;;5133595;27;20030;-69
2021/03/22 09:27:04;;;;;;;17.55;3.50;;;7.50;99.90;;;;;;5134961;28;20019;-67
2021/03/22 09:29:36;;;;;;;12.00;2.97;;;7.70;99.90;;;;;;5133067;28;20089;-67
2021/03/22 09:32:02;;;;;;;9.38;3.20;;;7.70;99.90;;;;;;5134554;28;20470;-67
2021/03/22 09:34:33;;;;;;;;;;;7.70;99.90;;;;;;5133315;28;20024;-66
2021/03/22 09:37:19;;;;;;;14.43;3.42;;;7.70;99.90;;;;;;5133265;28;19910;-68
2021/03/22 09:39:47;;;;;;;11.15;2.63;;;7.70;99.90;;;;;;5134539;28;20159;-65
2021/03/22 09:42:13;;;;;;;14.50;3.20;;;7.60;99.90;;;;;;5133165;28;20360;-65
2021/03/22 09:44:59;;;;;;;15.17;3.00;;;7.70;99.90;;;;;;5135045;28;20029;-65
2021/03/22 09:47:35;;;;;;;14.40;3.47;;;7.70;99.90;;;;;;5135177;27;20106;-65
2021/03/22 09:50:24;;;;;;;15.23;3.35;;;7.70;99.90;;;;;;5138256;27;20023;-66
2021/03/22 09:52:53;;;;;;;16.08;3.35;;;7.80;99.90;;;;;;5137950;27;20076;-66
2021/03/22 09:55:27;;;;;;;10.65;2.90;;;7.80;99.90;;;;;;5136531;27;20019;-66
2021/03/22 09:57:55;;;;;;;11.05;2.95;;;7.80;99.90;;;;;;5137783;27;20019;-66
2021/03/22 10:00:24;;;;;;;15.45;3.38;;;7.80;99.90;;;;;;5137660;27;20098;-67
2021/03/22 10:02:58;;;;;;;13.30;3.50;;;7.80;99.90;;;;;;5137497;27;20079;-67
2021/03/22 10:05:28;;;;;;;13.65;4.78;;;7.90;99.90;;;;;;5136082;27;20023;-67
2021/03/22 10:08:11;;;;;;;10.07;3.88;;;7.90;99.90;;;;;;5137820;27;20479;-66
2021/03/22 10:10:55;;;;;;;11.45;4.25;;;8.00;99.90;;;;;;5138059;27;20027;-68
2021/03/22 10:13:29;;;;;;;11.07;4.07;;;8.00;99.90;;;;;;5138071;27;20380;-66
2021/03/22 10:16:10;;;;;;;12.00;4.07;;;8.00;99.90;;;;;;5137396;27;20380;-66
2021/03/22 10:18:38;;;;;;;15.55;3.58;;;8.00;99.90;;;;;;5138009;27;20015;-63
2021/03/22 10:21:08;;;;;;;16.20;3.70;;;8.00;99.90;;;;;;5137354;27;20060;-64
2021/03/22 10:23:39;;;;;;;13.93;3.45;;;7.90;99.90;;;;;;5137801;27;20019;-65
2021/03/22 10:26:26;;;;;;;14.32;3.40;;;7.90;99.90;;;;;;5138081;27;20023;-63
2021/03/22 10:29:19;;;;;;;10.75;3.60;;;8.00;99.90;;;;;;5137478;27;20076;-64
2021/03/22 10:31:48;;;;;;;38.90;6.43;;;8.10;99.90;;;;;;5137179;27;20513;-64
2021/03/22 10:34:27;;;;;;;14.88;4.35;;;8.30;99.90;;;;;;5137502;27;20028;-65
2021/03/22 10:36:53;;;;;;;19.73;3.50;;;8.50;99.90;;;;;;5137546;27;20179;-65
2021/03/22 10:39:41;;;;;;;13.27;3.20;;;8.60;99.90;;;;;;5136844;27;20065;-65
2021/03/22 10:42:26;;;;;;;11.77;3.08;;;8.70;99.90;;;;;;5136796;27;20043;-65
2021/03/22 10:44:56;;;;;;;8.95;2.65;;;8.60;99.60;;;;;;5137833;27;20019;-65
2021/03/22 10:47:24;;;;;;;11.25;3.10;;;8.40;99.90;;;;;;5137197;27;20035;-66
2021/03/22 10:49:51;;;;;;;11.50;2.92;;;8.30;99.90;;;;;;5136922;27;20502;-64
2021/03/22 10:52:30;;;;;;;12.35;3.22;;;8.20;99.90;;;;;;5137086;27;20030;-64
2021/03/22 10:54:57;;;;;;;9.80;3.17;;;8.20;99.90;;;;;;5137405;27;20476;-65
2021/03/22 10:57:32;;;;;;;;;;;8.20;99.90;;;;;;5137388;27;20027;-66
2021/03/22 11:00:05;;;;;;;10.85;2.63;;;8.00;99.90;;;;;;5136660;27;19959;-66
2021/03/22 11:02:39;;;;;;;13.00;3.38;;;8.00;99.90;;;;;;5137273;27;20027;-65
2021/03/22 11:05:16;;;;;;;10.30;3.50;;;8.00;99.90;;;;;;5137136;27;20019;-64
2021/03/22 11:07:42;;;;;;;8.75;2.90;;;8.10;99.90;;;;;;5136904;27;20023;-64
2021/03/22 11:10:14;;;;;;;;;;;8.00;99.90;;;;;;5137258;27;20057;-64
2021/03/22 11:12:46;;;;;;;7.47;2.75;;;8.00;99.90;;;;;;5136858;27;19908;-64
2021/03/22 11:15:24;;;;;;;7.75;3.13;;;8.20;99.90;;;;;;5136258;27;20019;-64
2021/03/22 11:17:51;;;;;;;8.23;3.33;;;8.20;99.90;;;;;;5135119;27;20026;-65
2021/03/22 11:20:19;;;;;;;13.23;3.40;;;8.30;99.90;;;;;;5135788;27;20064;-64
2021/03/22 11:22:47;;;;;;;9.18;3.30;;;8.40;99.90;;;;;;5136509;27;20023;-64
2021/03/22 11:25:34;;;;;;;10.55;3.22;;;8.50;99.90;;;;;;5136723;27;20076;-65
2021/03/22 11:28:07;;;;;;;13.63;3.72;;;8.50;99.90;;;;;;5136554;27;20502;-65
2021/03/22 11:30:40;;;;;;;11.38;3.13;;;8.50;99.90;;;;;;5136425;27;20058;-64
2021/03/22 11:33:14;;;;;;;13.57;3.65;;;8.50;99.90;;;;;;5137193;27;20031;-64
2021/03/22 11:35:42;;;;;;;18.08;4.63;;;8.50;99.90;;;;;;5136594;27;20027;-65
2021/03/22 11:38:23;;;;;;;10.07;2.92;;;8.50;99.90;;;;;;5135945;27;20027;-64
2021/03/22 11:40:49;;;;;;;12.02;3.70;;;8.40;99.70;;;;;;5134682;27;20019;-66
2021/03/22 11:43:29;;;;;;;11.53;4.20;;;8.30;99.90;;;;;;5135865;27;20434;-66
2021/03/22 11:45:55;;;;;;;10.57;3.95;;;8.30;99.90;;;;;;5134316;27;20395;-65
2021/03/22 11:48:21;;;;;;;9.27;3.42;;;8.50;99.90;;;;;;5136088;27;20031;-65
2021/03/22 11:50:47;;;;;;;9.87;3.17;;;8.60;99.90;;;;;;5134375;27;20099;-59
2021/03/22 11:53:19;;;;;;;11.13;3.17;;;8.70;99.90;;;;;;5135753;27;20027;-65
2021/03/22 11:55:46;;;;;;;11.50;3.42;;;8.70;99.60;;;;;;5135926;27;20039;-66
2021/03/22 11:58:28;;;;;;;9.65;3.35;;;8.70;99.60;;;;;;5136052;27;20034;-66
2021/03/22 12:00:54;;;;;;;13.25;3.83;;;8.70;99.50;;;;;;5135656;27;20015;-66
2021/03/22 12:03:27;;;;;;;11.80;3.38;;;8.70;99.80;;;;;;5134074;27;20019;-65
2021/03/22 12:06:08;;;;;;;11.57;3.38;;;8.70;99.90;;;;;;5135562;27;20091;-66
2021/03/22 12:08:41;;;;;;;10.55;3.58;;;8.70;99.80;;;;;;5135494;27;20019;-66
2021/03/22 12:11:13;;;;;;;7.57;3.33;;;8.60;99.90;;;;;;5135091;27;20023;-66
2021/03/22 12:13:38;;;;;;;13.23;3.63;;;8.40;99.90;;;;;;5135711;27;20023;-64
2021/03/22 12:16:05;;;;;;;12.30;4.30;;;8.20;99.90;;;;;;5135519;27;20080;-64
2021/03/22 12:18:35;;;;;;;11.82;3.83;;;8.10;99.90;;;;;;5135753;27;20087;-66
2021/03/22 12:21:04;;;;;;;8.82;3.47;;;8.10;99.90;;;;;;5136386;27;20012;-66
2021/03/22 12:23:30;;;;;;;11.98;3.75;;;8.00;99.90;;;;;;5135834;27;20060;-65
2021/03/22 12:25:55;;;;;;;10.80;3.70;;;8.00;99.90;;;;;;5135358;27;20437;-64
2021/03/22 12:28:21;;;;;;;7.67;3.20;;;7.90;99.90;;;;;;5135105;27;20035;-65
2021/03/22 12:30:47;;;;;;;9.20;3.50;;;7.90;99.90;;;;;;5135200;27;20026;-65
2021/03/22 12:33:25;;;;;;;6.30;2.93;;;7.90;99.90;;;;;;5135628;27;20111;-65
2021/03/22 12:35:52;;;;;;;13.93;3.95;;;8.00;99.90;;;;;;5136886;27;20172;-65
2021/03/22 12:38:18;;;;;;;17.73;4.25;;;8.10;99.90;;;;;;5137686;27;20019;-65
2021/03/22 12:40:44;;;;;;;12.02;3.80;;;8.20;99.90;;;;;;5137303;27;20369;-66
2021/03/22 12:43:28;;;;;;;12.00;3.85;;;8.20;99.90;;;;;;5135698;27;20027;-65
2021/03/22 12:45:54;;;;;;;10.95;3.95;;;8.20;99.90;;;;;;5135266;27;20027;-63
2021/03/22 12:48:20;;;;;;;11.77;3.70;;;8.30;99.90;;;;;;5134910;27;20053;-64
2021/03/22 12:50:48;;;;;;;9.75;3.78;;;8.30;99.90;;;;;;5134978;27;20030;-65
2021/03/22 12:53:14;;;;;;;12.35;4.15;;;8.30;99.90;;;;;;5134295;27;20031;-64
2021/03/22 12:55:41;;;;;;;11.23;4.15;;;8.30;99.90;;;;;;5134903;27;20019;-65
2021/03/22 12:58:17;;;;;;;15.50;3.97;;;8.20;99.90;;;;;;5133156;27;20036;-66
2021/03/22 13:00:44;;;;;;;10.52;3.50;;;8.10;99.90;;;;;;5132956;27;20585;-65
2021/03/22 13:03:15;;;;;;;10.43;3.78;;;8.00;99.90;;;;;;5134718;27;20059;-65
2021/03/22 13:05:41;;;;;;;13.68;3.70;;;8.00;99.90;;;;;;5134437;27;20023;-65
2021/03/22 13:08:06;;;;;;;10.50;3.63;;;8.00;99.90;;;;;;5134559;27;20015;-64
2021/03/22 13:10:33;;;;;;;7.43;3.13;;;8.00;99.90;;;;;;5134338;27;20383;-65
2021/03/22 13:13:05;;;;;;;9.88;3.05;;;8.10;99.90;;;;;;5134169;27;20040;-65
2021/03/22 13:15:52;;;;;;;5.28;2.65;;;8.10;99.90;;;;;;5134344;27;20103;-65
2021/03/22 13:18:19;;;;;;;9.97;3.20;;;8.10;99.90;;;;;;5134282;27;20024;-64